sensor_id;sensor_type;location;lat;lon;timestamp;temperature;humidity
41262;DHT22;29629;52.532;13.352;2023-04-08T00:01:35;6.90;99.90
41262;DHT22;29629;52.532;13.352;2023-04-08T00:04:02;7.00;99.90
41262;DHT22;29629;52.532;13.352;2023-04-08T00:06:30;7.00;99.90
41262;DHT22;29629;52.532;13.352;2023-04-08T00:08:57;7.00;99.90
41262;DHT22;29629;52.532;13.352;2023-04-08T00:11:24;6.90;99.90
41262;DHT22;29629;52.532;13.352;2023-04-08T00:13:51;6.90;99.90
41262;DHT22;29629;52.532;13.352;2023-04-08T00:16:18;7.00;99.90
41262;DHT22;29629;52.532;13.352;2023-04-08T00:18:45;7.00;99.90
41262;DHT22;29629;52.532;13.352;2023-04-08T00:21:11;7.00;99.90
41262;DHT22;29629;52.532;13.352;2023-04-08T00:23:42;7.00;99.90
41262;DHT22;29629;52.532;13.352;2023-04-08T00:26:09;7.00;99.90
41262;DHT22;29629;52.532;13.352;2023-04-08T00:28:36;6.90;99.90
41262;DHT22;29629;52.532;13.352;2023-04-08T00:31:03;6.90;99.90
41262;DHT22;29629;52.532;13.352;2023-04-08T00:33:30;6.90;99.90
41262;DHT22;29629;52.532;13.352;2023-04-08T00:35:58;7.00;99.90
41262;DHT22;29629;52.532;13.352;2023-04-08T00:38:25;7.00;99.90
41262;DHT22;29629;52.532;13.352;2023-04-08T00:40:53;6.90;99.90
41262;DHT22;29629;52.532;13.352;2023-04-08T00:43:20;7.00;99.90
41262;DHT22;29629;52.532;13.352;2023-04-08T00:45:47;7.00;99.90
41262;DHT22;29629;52.532;13.352;2023-04-08T00:48:14;7.00;99.90
41262;DHT22;29629;52.532;13.352;2023-04-08T00:50:42;6.90;99.90
41262;DHT22;29629;52.532;13.352;2023-04-08T00:53:09;6.90;99.90
41262;DHT22;29629;52.532;13.352;2023-04-08T00:55:37;6.90;99.90
41262;DHT22;29629;52.532;13.352;2023-04-08T00:58:06;6.90;99.90
41262;DHT22;29629;52.532;13.352;2023-04-08T01:00:34;6.90;99.90
41262;DHT22;29629;52.532;13.352;2023-04-08T01:03:07;6.90;99.90
41262;DHT22;29629;52.532;13.352;2023-04-08T01:05:50;7.00;99.90
41262;DHT22;29629;52.532;13.352;2023-04-08T01:08:21;6.90;99.90
41262;DHT22;29629;52.532;13.352;2023-04-08T01:10:50;7.00;99.90
41262;DHT22;29629;52.532;13.352;2023-04-08T01:13:22;7.00;99.90
41262;DHT22;29629;52.532;13.352;2023-04-08T01:15:52;7.00;99.90
41262;DHT22;29629;52.532;13.352;2023-04-08T01:18:21;7.00;99.90
41262;DHT22;29629;52.532;13.352;2023-04-08T01:20:49;6.90;99.90
41262;DHT22;29629;52.532;13.352;2023-04-08T01:23:22;6.90;99.90
41262;DHT22;29629;52.532;13.352;2023-04-08T01:25:53;6.90;99.90
41262;DHT22;29629;52.532;13.352;2023-04-08T01:28:22;6.90;99.90
41262;DHT22;29629;52.532;13.352;2023-04-08T01:30:49;6.90;99.90
41262;DHT22;29629;52.532;13.352;2023-04-08T01:33:18;6.90;99.90
41262;DHT22;29629;52.532;13.352;2023-04-08T01:35:46;6.90;99.90
41262;DHT22;29629;52.532;13.352;2023-04-08T01:38:15;7.00;99.90
41262;DHT22;29629;52.532;13.352;2023-04-08T01:40:44;7.00;99.90
41262;DHT22;29629;52.532;13.352;2023-04-08T01:43:15;7.00;99.90
41262;DHT22;29629;52.532;13.352;2023-04-08T01:45:43;7.00;99.90
41262;DHT22;29629;52.532;13.352;2023-04-08T01:48:12;7.00;99.90
41262;DHT22;29629;52.532;13.352;2023-04-08T01:50:40;7.00;99.90
41262;DHT22;29629;52.532;13.352;2023-04-08T01:53:09;7.10;99.90
41262;DHT22;29629;52.532;13.352;2023-04-08T01:55:37;7.00;99.90
41262;DHT22;29629;52.532;13.352;2023-04-08T01:58:06;7.00;99.90
41262;DHT22;29629;52.532;13.352;2023-04-08T02:00:36;7.00;99.90
41262;DHT22;29629;52.532;13.352;2023-04-08T02:03:05;7.00;99.90
41262;DHT22;29629;52.532;13.352;2023-04-08T02:05:34;7.00;99.90
41262;DHT22;29629;52.532;13.352;2023-04-08T02:08:01;7.00;99.90
41262;DHT22;29629;52.532;13.352;2023-04-08T02:10:27;7.00;99.90
41262;DHT22;29629;52.532;13.352;2023-04-08T02:12:55;7.00;99.90
41262;DHT22;29629;52.532;13.352;2023-04-08T02:15:23;7.00;99.90
41262;DHT22;29629;52.532;13.352;2023-04-08T02:17:55;7.00;99.90
41262;DHT22;29629;52.532;13.352;2023-04-08T02:20:30;7.00;99.90
41262;DHT22;29629;52.532;13.352;2023-04-08T02:23:02;6.90;99.90
41262;DHT22;29629;52.532;13.352;2023-04-08T02:25:29;7.00;99.90
41262;DHT22;29629;52.532;13.352;2023-04-08T02:28:02;7.00;99.90
41262;DHT22;29629;52.532;13.352;2023-04-08T02:30:30;7.00;99.90
41262;DHT22;29629;52.532;13.352;2023-04-08T02:33:00;7.00;99.90
41262;DHT22;29629;52.532;13.352;2023-04-08T02:35:29;7.00;99.90
41262;DHT22;29629;52.532;13.352;2023-04-08T02:37:57;7.00;99.90
41262;DHT22;29629;52.532;13.352;2023-04-08T02:40:25;7.10;99.90
41262;DHT22;29629;52.532;13.352;2023-04-08T02:42:52;7.00;99.90
41262;DHT22;29629;52.532;13.352;2023-04-08T02:45:19;7.00;99.90
41262;DHT22;29629;52.532;13.352;2023-04-08T02:47:46;7.00;99.90
41262;DHT22;29629;52.532;13.352;2023-04-08T02:50:14;7.00;99.90
41262;DHT22;29629;52.532;13.352;2023-04-08T02:52:41;7.00;99.90
41262;DHT22;29629;52.532;13.352;2023-04-08T02:55:09;7.00;99.90
41262;DHT22;29629;52.532;13.352;2023-04-08T02:57:38;7.00;99.90
41262;DHT22;29629;52.532;13.352;2023-04-08T03:00:06;7.00;99.90
41262;DHT22;29629;52.532;13.352;2023-04-08T03:02:33;7.00;99.90
41262;DHT22;29629;52.532;13.352;2023-04-08T03:05:00;7.00;99.90
41262;DHT22;29629;52.532;13.352;2023-04-08T03:07:29;7.10;99.90
41262;DHT22;29629;52.532;13.352;2023-04-08T03:09:56;7.10;99.90
41262;DHT22;29629;52.532;13.352;2023-04-08T03:12:23;7.00;99.90
41262;DHT22;29629;52.532;13.352;2023-04-08T03:14:52;7.00;99.90
41262;DHT22;29629;52.532;13.352;2023-04-08T03:17:19;7.00;99.90
41262;DHT22;29629;52.532;13.352;2023-04-08T03:19:46;7.00;99.90
41262;DHT22;29629;52.532;13.352;2023-04-08T03:22:13;7.00;99.90
41262;DHT22;29629;52.532;13.352;2023-04-08T03:24:41;6.90;99.90
41262;DHT22;29629;52.532;13.352;2023-04-08T03:27:08;7.00;99.90
41262;DHT22;29629;52.532;13.352;2023-04-08T03:29:37;7.00;99.90
41262;DHT22;29629;52.532;13.352;2023-04-08T03:32:04;7.00;99.90
41262;DHT22;29629;52.532;13.352;2023-04-08T03:34:32;6.90;99.90
41262;DHT22;29629;52.532;13.352;2023-04-08T03:36:59;7.00;99.90
41262;DHT22;29629;52.532;13.352;2023-04-08T03:39:26;7.00;99.90
41262;DHT22;29629;52.532;13.352;2023-04-08T03:41:54;7.10;99.90
41262;DHT22;29629;52.532;13.352;2023-04-08T03:44:21;7.00;99.90
41262;DHT22;29629;52.532;13.352;2023-04-08T03:46:48;7.00;99.90
41262;DHT22;29629;52.532;13.352;2023-04-08T03:49:15;7.00;99.90
41262;DHT22;29629;52.532;13.352;2023-04-08T03:51:42;7.00;99.90
41262;DHT22;29629;52.532;13.352;2023-04-08T03:54:09;7.00;99.90
41262;DHT22;29629;52.532;13.352;2023-04-08T03:56:36;7.00;99.90
41262;DHT22;29629;52.532;13.352;2023-04-08T03:59:04;7.00;99.90
41262;DHT22;29629;52.532;13.352;2023-04-08T04:01:31;7.00;99.90
41262;DHT22;29629;52.532;13.352;2023-04-08T04:03:58;7.00;99.90
41262;DHT22;29629;52.532;13.352;2023-04-08T04:06:25;7.00;99.90
41262;DHT22;29629;52.532;13.352;2023-04-08T04:08:52;6.90;99.90
41262;DHT22;29629;52.532;13.352;2023-04-08T04:11:20;7.00;99.90
41262;DHT22;29629;52.532;13.352;2023-04-08T04:13:47;6.90;99.90
41262;DHT22;29629;52.532;13.352;2023-04-08T04:16:15;7.00;99.90
41262;DHT22;29629;52.532;13.352;2023-04-08T04:18:42;7.00;99.90
41262;DHT22;29629;52.532;13.352;2023-04-08T04:21:09;7.00;99.90
41262;DHT22;29629;52.532;13.352;2023-04-08T04:23:36;7.00;99.90
41262;DHT22;29629;52.532;13.352;2023-04-08T04:26:07;7.00;99.90
41262;DHT22;29629;52.532;13.352;2023-04-08T04:28:34;7.10;99.90
41262;DHT22;29629;52.532;13.352;2023-04-08T04:31:01;7.10;99.90
41262;DHT22;29629;52.532;13.352;2023-04-08T04:33:29;7.10;99.90
41262;DHT22;29629;52.532;13.352;2023-04-08T04:35:56;7.10;99.90
41262;DHT22;29629;52.532;13.352;2023-04-08T04:38:23;7.10;99.90
41262;DHT22;29629;52.532;13.352;2023-04-08T04:40:50;7.10;99.90
41262;DHT22;29629;52.532;13.352;2023-04-08T04:43:17;7.10;99.90
41262;DHT22;29629;52.532;13.352;2023-04-08T04:45:44;7.10;99.90
41262;DHT22;29629;52.532;13.352;2023-04-08T04:48:10;7.10;99.90
41262;DHT22;29629;52.532;13.352;2023-04-08T04:50:39;7.10;99.90
41262;DHT22;29629;52.532;13.352;2023-04-08T04:53:06;7.20;99.90
41262;DHT22;29629;52.532;13.352;2023-04-08T04:55:32;7.10;99.90
41262;DHT22;29629;52.532;13.352;2023-04-08T04:58:00;7.10;99.90
41262;DHT22;29629;52.532;13.352;2023-04-08T05:00:26;7.10;99.90
41262;DHT22;29629;52.532;13.352;2023-04-08T05:02:53;7.00;99.90
41262;DHT22;29629;52.532;13.352;2023-04-08T05:05:20;7.00;99.90
41262;DHT22;29629;52.532;13.352;2023-04-08T05:07:48;7.00;99.90
41262;DHT22;29629;52.532;13.352;2023-04-08T05:10:15;6.90;99.90
41262;DHT22;29629;52.532;13.352;2023-04-08T05:12:42;7.10;99.90
41262;DHT22;29629;52.532;13.352;2023-04-08T05:15:10;7.10;99.90
41262;DHT22;29629;52.532;13.352;2023-04-08T05:17:37;7.00;99.90
41262;DHT22;29629;52.532;13.352;2023-04-08T05:20:05;7.10;99.90
41262;DHT22;29629;52.532;13.352;2023-04-08T05:22:32;7.10;99.90
41262;DHT22;29629;52.532;13.352;2023-04-08T05:25:00;7.10;99.90
41262;DHT22;29629;52.532;13.352;2023-04-08T05:27:27;7.10;99.90
41262;DHT22;29629;52.532;13.352;2023-04-08T05:29:54;7.10;99.90
41262;DHT22;29629;52.532;13.352;2023-04-08T05:32:21;7.10;99.90
41262;DHT22;29629;52.532;13.352;2023-04-08T05:34:48;7.10;99.90
41262;DHT22;29629;52.532;13.352;2023-04-08T05:37:15;7.10;99.90
41262;DHT22;29629;52.532;13.352;2023-04-08T05:39:41;7.10;99.90
41262;DHT22;29629;52.532;13.352;2023-04-08T05:42:10;7.20;99.90
41262;DHT22;29629;52.532;13.352;2023-04-08T05:44:38;7.20;99.90
41262;DHT22;29629;52.532;13.352;2023-04-08T05:47:06;7.20;99.90
41262;DHT22;29629;52.532;13.352;2023-04-08T05:49:33;7.20;99.90
41262;DHT22;29629;52.532;13.352;2023-04-08T05:52:00;7.20;99.90
41262;DHT22;29629;52.532;13.352;2023-04-08T05:54:28;7.30;99.90
41262;DHT22;29629;52.532;13.352;2023-04-08T05:56:55;7.30;99.90
41262;DHT22;29629;52.532;13.352;2023-04-08T05:59:23;7.30;99.90
41262;DHT22;29629;52.532;13.352;2023-04-08T06:01:50;7.30;99.90
41262;DHT22;29629;52.532;13.352;2023-04-08T06:04:19;7.30;99.90
41262;DHT22;29629;52.532;13.352;2023-04-08T06:06:46;7.30;99.90
41262;DHT22;29629;52.532;13.352;2023-04-08T06:09:12;7.30;99.90
41262;DHT22;29629;52.532;13.352;2023-04-08T06:11:39;7.50;99.90
41262;DHT22;29629;52.532;13.352;2023-04-08T06:14:06;7.50;99.90
41262;DHT22;29629;52.532;13.352;2023-04-08T06:16:34;7.40;99.90
41262;DHT22;29629;52.532;13.352;2023-04-08T06:19:01;7.50;99.90
41262;DHT22;29629;52.532;13.352;2023-04-08T06:21:28;7.60;99.90
41262;DHT22;29629;52.532;13.352;2023-04-08T06:23:55;7.60;99.90
41262;DHT22;29629;52.532;13.352;2023-04-08T06:26:22;7.60;99.90
41262;DHT22;29629;52.532;13.352;2023-04-08T06:28:49;7.60;99.90
41262;DHT22;29629;52.532;13.352;2023-04-08T06:31:16;7.60;99.90
41262;DHT22;29629;52.532;13.352;2023-04-08T06:33:45;7.70;99.90
41262;DHT22;29629;52.532;13.352;2023-04-08T06:36:11;7.80;99.90
41262;DHT22;29629;52.532;13.352;2023-04-08T06:38:38;7.90;99.90
41262;DHT22;29629;52.532;13.352;2023-04-08T06:41:06;7.90;99.90
41262;DHT22;29629;52.532;13.352;2023-04-08T06:43:34;8.00;99.90
41262;DHT22;29629;52.532;13.352;2023-04-08T06:46:02;7.90;99.90
41262;DHT22;29629;52.532;13.352;2023-04-08T06:48:29;7.90;99.90
41262;DHT22;29629;52.532;13.352;2023-04-08T06:50:58;8.00;99.90
41262;DHT22;29629;52.532;13.352;2023-04-08T06:53:26;7.90;99.90
41262;DHT22;29629;52.532;13.352;2023-04-08T06:55:53;8.00;99.90
41262;DHT22;29629;52.532;13.352;2023-04-08T06:58:20;8.10;99.90
41262;DHT22;29629;52.532;13.352;2023-04-08T07:00:47;8.10;99.90
41262;DHT22;29629;52.532;13.352;2023-04-08T07:03:14;8.10;99.90
41262;DHT22;29629;52.532;13.352;2023-04-08T07:05:41;8.10;99.90
41262;DHT22;29629;52.532;13.352;2023-04-08T07:08:09;8.10;99.90
41262;DHT22;29629;52.532;13.352;2023-04-08T07:10:36;8.10;99.90
41262;DHT22;29629;52.532;13.352;2023-04-08T07:13:04;8.20;99.90
41262;DHT22;29629;52.532;13.352;2023-04-08T07:15:31;8.30;99.90
41262;DHT22;29629;52.532;13.352;2023-04-08T07:17:57;8.40;99.90
41262;DHT22;29629;52.532;13.352;2023-04-08T07:20:25;8.40;99.90
41262;DHT22;29629;52.532;13.352;2023-04-08T07:22:52;8.50;99.90
41262;DHT22;29629;52.532;13.352;2023-04-08T07:25:20;8.60;99.90
41262;DHT22;29629;52.532;13.352;2023-04-08T07:27:47;8.60;99.90
41262;DHT22;29629;52.532;13.352;2023-04-08T07:30:14;8.70;99.90
41262;DHT22;29629;52.532;13.352;2023-04-08T07:32:40;8.90;99.90
41262;DHT22;29629;52.532;13.352;2023-04-08T07:35:07;8.90;99.90
41262;DHT22;29629;52.532;13.352;2023-04-08T07:37:34;9.00;99.90
41262;DHT22;29629;52.532;13.352;2023-04-08T07:40:01;9.10;99.90
41262;DHT22;29629;52.532;13.352;2023-04-08T07:42:30;9.10;99.90
41262;DHT22;29629;52.532;13.352;2023-04-08T07:44:56;9.30;99.90
41262;DHT22;29629;52.532;13.352;2023-04-08T07:47:23;9.10;99.90
41262;DHT22;29629;52.532;13.352;2023-04-08T07:49:50;9.10;99.90
41262;DHT22;29629;52.532;13.352;2023-04-08T07:52:19;9.00;99.90
41262;DHT22;29629;52.532;13.352;2023-04-08T07:54:45;9.00;99.90
41262;DHT22;29629;52.532;13.352;2023-04-08T07:57:12;9.00;99.90
41262;DHT22;29629;52.532;13.352;2023-04-08T07:59:41;9.10;99.90
41262;DHT22;29629;52.532;13.352;2023-04-08T08:02:07;9.00;99.90
41262;DHT22;29629;52.532;13.352;2023-04-08T08:04:34;9.10;99.90
41262;DHT22;29629;52.532;13.352;2023-04-08T08:07:02;9.20;99.90
41262;DHT22;29629;52.532;13.352;2023-04-08T08:09:29;9.60;99.90
41262;DHT22;29629;52.532;13.352;2023-04-08T08:11:56;9.70;99.90
41262;DHT22;29629;52.532;13.352;2023-04-08T08:14:23;9.70;99.90
41262;DHT22;29629;52.532;13.352;2023-04-08T08:16:52;9.80;99.90
41262;DHT22;29629;52.532;13.352;2023-04-08T08:19:19;9.80;99.90
41262;DHT22;29629;52.532;13.352;2023-04-08T08:21:46;9.90;99.90
41262;DHT22;29629;52.532;13.352;2023-04-08T08:24:13;10.00;99.90
41262;DHT22;29629;52.532;13.352;2023-04-08T08:26:41;10.20;99.90
41262;DHT22;29629;52.532;13.352;2023-04-08T08:29:09;10.40;99.90
41262;DHT22;29629;52.532;13.352;2023-04-08T08:31:36;10.30;99.90
41262;DHT22;29629;52.532;13.352;2023-04-08T08:34:04;10.30;99.90
41262;DHT22;29629;52.532;13.352;2023-04-08T08:36:31;10.50;99.90
41262;DHT22;29629;52.532;13.352;2023-04-08T08:38:58;10.70;99.90
41262;DHT22;29629;52.532;13.352;2023-04-08T08:41:26;10.70;99.90
41262;DHT22;29629;52.532;13.352;2023-04-08T08:43:54;10.60;99.90
41262;DHT22;29629;52.532;13.352;2023-04-08T08:46:22;10.90;99.90
41262;DHT22;29629;52.532;13.352;2023-04-08T08:48:49;10.90;99.90
41262;DHT22;29629;52.532;13.352;2023-04-08T08:51:17;10.70;99.90
41262;DHT22;29629;52.532;13.352;2023-04-08T08:53:44;10.60;99.90
41262;DHT22;29629;52.532;13.352;2023-04-08T08:56:11;10.70;99.90
41262;DHT22;29629;52.532;13.352;2023-04-08T08:58:38;10.70;99.90
41262;DHT22;29629;52.532;13.352;2023-04-08T09:01:32;10.80;99.90
41262;DHT22;29629;52.532;13.352;2023-04-08T09:04:07;11.20;99.90
41262;DHT22;29629;52.532;13.352;2023-04-08T09:06:36;11.20;99.90
41262;DHT22;29629;52.532;13.352;2023-04-08T09:09:04;11.00;99.90
41262;DHT22;29629;52.532;13.352;2023-04-08T09:11:35;11.10;99.90
41262;DHT22;29629;52.532;13.352;2023-04-08T09:14:03;11.30;99.90
41262;DHT22;29629;52.532;13.352;2023-04-08T09:16:31;11.30;99.90
41262;DHT22;29629;52.532;13.352;2023-04-08T09:19:08;11.30;99.90
41262;DHT22;29629;52.532;13.352;2023-04-08T09:21:37;11.10;99.90
41262;DHT22;29629;52.532;13.352;2023-04-08T09:24:05;11.20;99.90
41262;DHT22;29629;52.532;13.352;2023-04-08T09:26:33;11.10;99.90
41262;DHT22;29629;52.532;13.352;2023-04-08T09:29:00;11.10;99.90
41262;DHT22;29629;52.532;13.352;2023-04-08T09:31:28;11.30;99.90
41262;DHT22;29629;52.532;13.352;2023-04-08T09:33:56;11.10;99.90
41262;DHT22;29629;52.532;13.352;2023-04-08T09:36:24;10.90;99.90
41262;DHT22;29629;52.532;13.352;2023-04-08T09:38:54;10.80;99.90
41262;DHT22;29629;52.532;13.352;2023-04-08T09:41:21;10.90;99.90
41262;DHT22;29629;52.532;13.352;2023-04-08T09:43:50;11.00;99.90
41262;DHT22;29629;52.532;13.352;2023-04-08T09:46:23;11.00;99.90
41262;DHT22;29629;52.532;13.352;2023-04-08T09:48:57;10.80;99.90
41262;DHT22;29629;52.532;13.352;2023-04-08T09:51:31;10.80;99.90
41262;DHT22;29629;52.532;13.352;2023-04-08T09:54:02;10.80;99.90
41262;DHT22;29629;52.532;13.352;2023-04-08T09:56:40;10.70;99.90
41262;DHT22;29629;52.532;13.352;2023-04-08T09:59:12;10.70;99.90
41262;DHT22;29629;52.532;13.352;2023-04-08T10:01:44;10.80;99.90
41262;DHT22;29629;52.532;13.352;2023-04-08T10:04:14;10.80;99.90
41262;DHT22;29629;52.532;13.352;2023-04-08T10:06:42;10.90;99.90
41262;DHT22;29629;52.532;13.352;2023-04-08T10:09:11;10.90;99.90
41262;DHT22;29629;52.532;13.352;2023-04-08T10:11:38;10.90;99.90
41262;DHT22;29629;52.532;13.352;2023-04-08T10:14:05;10.80;99.90
41262;DHT22;29629;52.532;13.352;2023-04-08T10:16:35;10.70;99.90
41262;DHT22;29629;52.532;13.352;2023-04-08T10:19:36;10.70;99.90
41262;DHT22;29629;52.532;13.352;2023-04-08T10:22:46;10.60;99.90
41262;DHT22;29629;52.532;13.352;2023-04-08T10:25:29;11.00;99.90
41262;DHT22;29629;52.532;13.352;2023-04-08T10:27:58;11.50;99.90
41262;DHT22;29629;52.532;13.352;2023-04-08T10:30:39;12.00;99.90
41262;DHT22;29629;52.532;13.352;2023-04-08T10:33:10;12.00;99.90
41262;DHT22;29629;52.532;13.352;2023-04-08T10:35:40;12.60;99.90
41262;DHT22;29629;52.532;13.352;2023-04-08T10:38:08;13.30;99.90
41262;DHT22;29629;52.532;13.352;2023-04-08T10:40:37;13.60;99.90
41262;DHT22;29629;52.532;13.352;2023-04-08T10:43:06;14.00;99.90
41262;DHT22;29629;52.532;13.352;2023-04-08T10:45:33;13.80;99.90
41262;DHT22;29629;52.532;13.352;2023-04-08T10:48:14;13.50;99.90
41262;DHT22;29629;52.532;13.352;2023-04-08T10:50:42;13.30;99.90
41262;DHT22;29629;52.532;13.352;2023-04-08T10:53:09;13.30;99.90
41262;DHT22;29629;52.532;13.352;2023-04-08T10:55:38;13.20;99.90
41262;DHT22;29629;52.532;13.352;2023-04-08T10:58:06;13.20;99.90
41262;DHT22;29629;52.532;13.352;2023-04-08T11:00:34;13.10;99.90
41262;DHT22;29629;52.532;13.352;2023-04-08T11:03:02;13.00;99.90
41262;DHT22;29629;52.532;13.352;2023-04-08T11:05:30;12.70;99.90
41262;DHT22;29629;52.532;13.352;2023-04-08T11:07:57;12.60;99.90
41262;DHT22;29629;52.532;13.352;2023-04-08T11:10:24;12.50;99.90
41262;DHT22;29629;52.532;13.352;2023-04-08T11:12:54;12.70;99.90
41262;DHT22;29629;52.532;13.352;2023-04-08T11:15:22;13.70;99.90
41262;DHT22;29629;52.532;13.352;2023-04-08T11:17:50;14.50;99.90
41262;DHT22;29629;52.532;13.352;2023-04-08T11:20:18;14.10;99.90
41262;DHT22;29629;52.532;13.352;2023-04-08T11:22:46;14.70;99.90
41262;DHT22;29629;52.532;13.352;2023-04-08T11:25:13;14.80;99.90
41262;DHT22;29629;52.532;13.352;2023-04-08T11:27:41;15.10;99.90
41262;DHT22;29629;52.532;13.352;2023-04-08T11:30:10;15.00;99.90
41262;DHT22;29629;52.532;13.352;2023-04-08T11:32:38;14.70;99.90
41262;DHT22;29629;52.532;13.352;2023-04-08T11:35:05;14.40;99.90
41262;DHT22;29629;52.532;13.352;2023-04-08T11:37:36;14.10;99.90
41262;DHT22;29629;52.532;13.352;2023-04-08T11:40:08;13.60;99.90
41262;DHT22;29629;52.532;13.352;2023-04-08T11:42:37;13.50;99.90
41262;DHT22;29629;52.532;13.352;2023-04-08T11:45:11;13.40;99.90
41262;DHT22;29629;52.532;13.352;2023-04-08T11:47:38;13.60;99.90
41262;DHT22;29629;52.532;13.352;2023-04-08T11:50:06;13.70;99.90
41262;DHT22;29629;52.532;13.352;2023-04-08T11:52:43;14.00;99.90
41262;DHT22;29629;52.532;13.352;2023-04-08T11:55:21;13.90;99.90
41262;DHT22;29629;52.532;13.352;2023-04-08T11:57:49;13.90;99.90
41262;DHT22;29629;52.532;13.352;2023-04-08T12:00:18;13.90;99.90
41262;DHT22;29629;52.532;13.352;2023-04-08T12:02:44;13.70;99.90
41262;DHT22;29629;52.532;13.352;2023-04-08T12:05:12;13.40;99.90
41262;DHT22;29629;52.532;13.352;2023-04-08T12:07:39;13.20;99.90
41262;DHT22;29629;52.532;13.352;2023-04-08T12:10:07;13.20;99.90
41262;DHT22;29629;52.532;13.352;2023-04-08T12:12:34;13.40;99.90
41262;DHT22;29629;52.532;13.352;2023-04-08T12:15:01;13.50;99.90
41262;DHT22;29629;52.532;13.352;2023-04-08T12:17:29;13.40;99.90
41262;DHT22;29629;52.532;13.352;2023-04-08T12:19:56;13.40;99.90
41262;DHT22;29629;52.532;13.352;2023-04-08T12:22:23;13.30;99.90
41262;DHT22;29629;52.532;13.352;2023-04-08T12:24:50;14.10;99.90
41262;DHT22;29629;52.532;13.352;2023-04-08T12:27:17;15.90;99.90
41262;DHT22;29629;52.532;13.352;2023-04-08T12:29:44;17.30;99.90
41262;DHT22;29629;52.532;13.352;2023-04-08T12:32:11;16.70;99.90
41262;DHT22;29629;52.532;13.352;2023-04-08T12:34:41;16.00;99.90
41262;DHT22;29629;52.532;13.352;2023-04-08T12:37:07;15.30;99.90
41262;DHT22;29629;52.532;13.352;2023-04-08T12:39:35;14.90;99.90
41262;DHT22;29629;52.532;13.352;2023-04-08T12:42:02;15.80;99.90
41262;DHT22;29629;52.532;13.352;2023-04-08T12:44:29;15.70;99.90
41262;DHT22;29629;52.532;13.352;2023-04-08T12:46:56;15.50;99.90
41262;DHT22;29629;52.532;13.352;2023-04-08T12:49:23;15.00;99.90
41262;DHT22;29629;52.532;13.352;2023-04-08T12:51:52;16.30;99.90
41262;DHT22;29629;52.532;13.352;2023-04-08T12:54:19;17.00;99.90
41262;DHT22;29629;52.532;13.352;2023-04-08T12:56:46;17.20;99.90
41262;DHT22;29629;52.532;13.352;2023-04-08T12:59:13;18.60;99.90
41262;DHT22;29629;52.532;13.352;2023-04-08T13:01:41;18.60;99.90
41262;DHT22;29629;52.532;13.352;2023-04-08T13:04:07;18.30;99.90
41262;DHT22;29629;52.532;13.352;2023-04-08T13:06:35;17.50;99.90
41262;DHT22;29629;52.532;13.352;2023-04-08T13:09:03;16.90;99.90
41262;DHT22;29629;52.532;13.352;2023-04-08T13:11:30;16.40;99.90
41262;DHT22;29629;52.532;13.352;2023-04-08T13:13:58;15.70;99.90
41262;DHT22;29629;52.532;13.352;2023-04-08T13:16:25;15.30;99.90
41262;DHT22;29629;52.532;13.352;2023-04-08T13:18:52;15.00;99.90
41262;DHT22;29629;52.532;13.352;2023-04-08T13:21:19;14.80;99.90
41262;DHT22;29629;52.532;13.352;2023-04-08T13:23:45;15.20;99.90
41262;DHT22;29629;52.532;13.352;2023-04-08T13:26:14;16.70;99.90
41262;DHT22;29629;52.532;13.352;2023-04-08T13:28:41;17.80;99.90
41262;DHT22;29629;52.532;13.352;2023-04-08T13:31:07;18.10;99.90
41262;DHT22;29629;52.532;13.352;2023-04-08T13:33:34;18.00;99.90
41262;DHT22;29629;52.532;13.352;2023-04-08T13:36:02;16.80;99.90
41262;DHT22;29629;52.532;13.352;2023-04-08T13:38:29;17.70;99.90
41262;DHT22;29629;52.532;13.352;2023-04-08T13:40:56;18.50;99.90
41262;DHT22;29629;52.532;13.352;2023-04-08T13:43:25;19.00;99.90
41262;DHT22;29629;52.532;13.352;2023-04-08T13:45:52;18.60;99.90
41262;DHT22;29629;52.532;13.352;2023-04-08T13:48:19;18.70;99.90
41262;DHT22;29629;52.532;13.352;2023-04-08T13:50:46;18.90;99.90
41262;DHT22;29629;52.532;13.352;2023-04-08T13:53:13;18.30;99.90
41262;DHT22;29629;52.532;13.352;2023-04-08T13:55:40;18.30;99.90
41262;DHT22;29629;52.532;13.352;2023-04-08T13:58:07;18.50;99.90
41262;DHT22;29629;52.532;13.352;2023-04-08T14:00:35;18.70;99.90
41262;DHT22;29629;52.532;13.352;2023-04-08T14:03:02;17.30;99.90
41262;DHT22;29629;52.532;13.352;2023-04-08T14:05:29;16.90;99.90
41262;DHT22;29629;52.532;13.352;2023-04-08T14:07:56;17.00;99.90
41262;DHT22;29629;52.532;13.352;2023-04-08T14:10:23;16.80;99.90
41262;DHT22;29629;52.532;13.352;2023-04-08T14:12:50;17.00;99.90
41262;DHT22;29629;52.532;13.352;2023-04-08T14:15:17;16.80;99.90
41262;DHT22;29629;52.532;13.352;2023-04-08T14:17:45;16.30;99.90
41262;DHT22;29629;52.532;13.352;2023-04-08T14:20:12;16.00;99.90
41262;DHT22;29629;52.532;13.352;2023-04-08T14:22:40;15.70;99.90
41262;DHT22;29629;52.532;13.352;2023-04-08T14:25:08;15.60;99.90
41262;DHT22;29629;52.532;13.352;2023-04-08T14:27:35;15.50;99.90
41262;DHT22;29629;52.532;13.352;2023-04-08T14:30:01;15.40;99.90
41262;DHT22;29629;52.532;13.352;2023-04-08T14:32:28;15.50;99.90
41262;DHT22;29629;52.532;13.352;2023-04-08T14:34:58;15.50;99.90
41262;DHT22;29629;52.532;13.352;2023-04-08T14:37:24;15.60;99.90
41262;DHT22;29629;52.532;13.352;2023-04-08T14:39:51;15.40;99.90
41262;DHT22;29629;52.532;13.352;2023-04-08T14:42:18;15.10;99.90
41262;DHT22;29629;52.532;13.352;2023-04-08T14:44:47;15.00;99.90
41262;DHT22;29629;52.532;13.352;2023-04-08T14:47:14;14.80;99.90
41262;DHT22;29629;52.532;13.352;2023-04-08T14:49:41;14.70;99.90
41262;DHT22;29629;52.532;13.352;2023-04-08T14:52:09;14.30;99.90
41262;DHT22;29629;52.532;13.352;2023-04-08T14:54:36;14.30;99.90
41262;DHT22;29629;52.532;13.352;2023-04-08T14:57:03;14.20;99.90
41262;DHT22;29629;52.532;13.352;2023-04-08T14:59:30;14.10;99.90
41262;DHT22;29629;52.532;13.352;2023-04-08T15:01:57;14.10;99.90
41262;DHT22;29629;52.532;13.352;2023-04-08T15:04:24;14.00;99.90
41262;DHT22;29629;52.532;13.352;2023-04-08T15:06:51;14.00;99.90
41262;DHT22;29629;52.532;13.352;2023-04-08T15:09:20;14.10;99.90
41262;DHT22;29629;52.532;13.352;2023-04-08T15:11:47;14.30;99.90
41262;DHT22;29629;52.532;13.352;2023-04-08T15:14:13;14.50;99.90
41262;DHT22;29629;52.532;13.352;2023-04-08T15:16:40;14.20;99.90
41262;DHT22;29629;52.532;13.352;2023-04-08T15:19:07;14.10;99.90
41262;DHT22;29629;52.532;13.352;2023-04-08T15:21:34;14.10;99.90
41262;DHT22;29629;52.532;13.352;2023-04-08T15:24:01;14.00;99.90
41262;DHT22;29629;52.532;13.352;2023-04-08T15:26:29;13.80;99.90
41262;DHT22;29629;52.532;13.352;2023-04-08T15:28:57;13.70;99.90
41262;DHT22;29629;52.532;13.352;2023-04-08T15:31:24;13.60;99.90